Time;durP1;ratioP1;P1;durP2;ratioP2;P2;SDS_P1;SDS_P2;PMS_P1;PMS_P2;Temp;Humidity;BMP_temperature;BMP_pressure;BME280_temperature;BME280_humidity;BME280_pressure;Samples;Min_cycle;Max_cycle;Signal;HPM_P1;HPM_P2
2022/07/25 00:01:44;;;;;;;1999.90;999.90;;;20.50;99.90;;;;;;5032192;28;20025;-71
2022/07/25 00:04:11;;;;;;;1999.90;999.90;;;20.40;99.90;;;;;;5032283;28;20065;-71
2022/07/25 00:06:37;;;;;;;1999.90;999.90;;;20.40;99.90;;;;;;5035516;28;20022;-73
2022/07/25 00:09:03;;;;;;;1999.90;999.90;;;20.40;99.90;;;;;;5034745;28;20029;-72
2022/07/25 00:11:29;;;;;;;1999.90;999.90;;;20.40;99.90;;;;;;5015598;28;20021;-73
2022/07/25 00:13:54;;;;;;;1999.90;999.90;;;20.40;99.90;;;;;;5015981;28;20148;-71
2022/07/25 00:16:20;;;;;;;1999.90;999.90;;;20.30;99.90;;;;;;5015905;28;20026;-71
2022/07/25 00:18:46;;;;;;;1999.90;999.90;;;20.30;99.90;;;;;;5015502;28;20022;-72
2022/07/25 00:21:12;;;;;;;1999.90;999.90;;;20.20;99.90;;;;;;5015687;28;20040;-73
2022/07/25 00:23:37;;;;;;;1999.90;999.90;;;20.10;99.90;;;;;;5015859;28;20026;-73
2022/07/25 00:26:04;;;;;;;1999.90;999.90;;;20.10;99.90;;;;;;5015490;28;20440;-73
2022/07/25 00:28:30;;;;;;;1999.90;999.90;;;20.10;99.90;;;;;;5015292;28;20057;-71
2022/07/25 00:30:56;;;;;;;1999.90;999.90;;;20.10;99.90;;;;;;5015712;28;20484;-71
2022/07/25 00:33:21;;;;;;;1999.90;999.90;;;20.10;99.90;;;;;;5015461;28;20366;-73
2022/07/25 00:35:47;;;;;;;1999.90;999.90;;;20.10;99.90;;;;;;5015357;28;20045;-72
2022/07/25 00:38:12;;;;;;;1999.90;999.90;;;20.10;99.90;;;;;;5023835;28;20079;-73
2022/07/25 00:40:38;;;;;;;1999.90;999.90;;;20.10;99.90;;;;;;5035023;28;20029;-71
2022/07/25 00:43:04;;;;;;;1999.90;999.90;;;20.10;99.90;;;;;;5035460;28;20029;-71
2022/07/25 00:45:30;;;;;;;1999.90;999.90;;;20.10;99.90;;;;;;5035384;28;20455;-71
2022/07/25 00:47:55;;;;;;;1999.90;999.90;;;20.20;99.90;;;;;;5035219;28;20404;-72
2022/07/25 00:50:21;;;;;;;1999.90;999.90;;;20.20;99.90;;;;;;5035057;28;20026;-73
2022/07/25 00:52:48;;;;;;;1999.90;999.90;;;20.20;99.90;;;;;;5034910;28;20548;-72
2022/07/25 00:55:14;;;;;;;1999.90;999.90;;;20.30;99.90;;;;;;5034968;28;20439;-71
2022/07/25 00:57:39;;;;;;;1999.90;999.90;;;20.30;99.90;;;;;;5035170;28;20017;-71
2022/07/25 01:00:08;;;;;;;1999.90;999.90;;;20.40;99.90;;;;;;5034413;28;20029;-73
2022/07/25 01:02:34;;;;;;;1999.90;999.90;;;20.40;99.90;;;;;;5034847;28;20116;-73
2022/07/25 01:05:00;;;;;;;1999.90;999.90;;;20.30;99.90;;;;;;5034707;28;20101;-72
2022/07/25 01:07:25;;;;;;;1999.90;999.90;;;20.30;99.90;;;;;;5034682;28;20480;-73
2022/07/25 01:09:51;;;;;;;1999.90;999.90;;;20.30;99.90;;;;;;5027010;28;20030;-72
2022/07/25 01:12:17;;;;;;;1999.90;999.90;;;20.30;99.90;;;;;;5014742;28;20030;-73
2022/07/25 01:14:42;;;;;;;1999.90;999.90;;;20.30;99.90;;;;;;5013648;28;20026;-71
2022/07/25 01:17:08;;;;;;;1999.90;999.90;;;20.30;99.90;;;;;;5013598;28;20072;-72
2022/07/25 01:19:33;;;;;;;1999.90;999.90;;;20.30;99.90;;;;;;5014603;28;20482;-71
2022/07/25 01:21:59;;;;;;;1999.90;999.90;;;20.30;99.90;;;;;;5014448;28;20034;-70
2022/07/25 01:24:25;;;;;;;1999.90;999.90;;;20.30;99.90;;;;;;5014776;28;20038;-71
2022/07/25 01:26:51;;;;;;;1999.90;999.90;;;20.30;99.90;;;;;;5014085;28;20033;-72
2022/07/25 01:29:17;;;;;;;1999.90;999.90;;;20.30;99.90;;;;;;5014373;28;20405;-72
2022/07/25 01:31:42;;;;;;;1999.90;999.90;;;20.30;99.90;;;;;;5014580;28;20057;-70
2022/07/25 01:34:08;;;;;;;1999.90;999.90;;;20.30;99.90;;;;;;5014457;28;20030;-70
2022/07/25 01:36:34;;;;;;;1999.90;999.90;;;20.30;99.90;;;;;;5014555;28;20022;-70
2022/07/25 01:38:59;;;;;;;1999.90;999.90;;;20.30;99.90;;;;;;5028839;28;20060;-72
2022/07/25 01:41:25;;;;;;;1999.90;999.90;;;20.30;99.90;;;;;;5034108;28;20091;-73
2022/07/25 01:43:51;;;;;;;1999.90;999.90;;;20.30;99.90;;;;;;5034249;28;20455;-72
2022/07/25 01:46:17;;;;;;;1999.90;999.90;;;20.30;99.90;;;;;;5034086;28;20025;-73
2022/07/25 01:48:42;;;;;;;1999.90;999.90;;;20.40;99.90;;;;;;5033612;28;20451;-70
2022/07/25 01:51:09;;;;;;;1999.90;999.90;;;20.30;99.90;;;;;;5033995;28;20079;-71
2022/07/25 01:53:35;;;;;;;1999.90;999.90;;;20.40;99.90;;;;;;5034327;28;20021;-72
2022/07/25 01:56:01;;;;;;;1999.90;999.90;;;20.40;99.90;;;;;;5033529;28;20021;-71
2022/07/25 01:58:26;;;;;;;1999.90;999.90;;;20.40;99.90;;;;;;5033728;28;20463;-72
2022/07/25 02:00:52;;;;;;;1999.90;999.90;;;20.40;99.90;;;;;;5032723;28;20087;-71
2022/07/25 02:03:30;;;;;;;1999.90;999.90;;;20.50;99.90;;;;;;5033335;28;20030;-73
2022/07/25 02:06:06;;;;;;;1999.90;999.90;;;20.50;99.90;;;;;;5034021;28;20025;-70
2022/07/25 02:08:32;;;;;;;1999.90;999.90;;;20.40;99.90;;;;;;5033457;28;20101;-72
2022/07/25 02:10:59;;;;;;;1999.90;999.90;;;20.50;99.90;;;;;;5016234;28;20022;-70
2022/07/25 02:13:25;;;;;;;1999.90;999.90;;;20.50;99.90;;;;;;5013712;28;20420;-71
2022/07/25 02:15:51;;;;;;;1999.90;999.90;;;20.50;99.90;;;;;;5013748;28;20033;-70
2022/07/25 02:18:17;;;;;;;1999.90;999.90;;;20.50;99.90;;;;;;5013406;28;20022;-70
2022/07/25 02:20:43;;;;;;;1999.90;999.90;;;20.40;99.90;;;;;;5013750;28;20153;-72
2022/07/25 02:23:09;;;;;;;1999.90;999.90;;;20.40;99.90;;;;;;5013702;28;20033;-72
2022/07/25 02:25:34;;;;;;;1999.90;999.90;;;20.40;99.90;;;;;;5013552;28;20105;-70
2022/07/25 02:28:00;;;;;;;1999.90;999.90;;;20.40;99.90;;;;;;5012552;28;20045;-72
2022/07/25 02:30:26;;;;;;;1999.90;999.90;;;20.50;99.90;;;;;;5013570;28;20033;-72
2022/07/25 02:32:52;;;;;;;1999.90;999.90;;;20.50;99.90;;;;;;5013647;28;20030;-70
2022/07/25 02:35:18;;;;;;;1999.90;999.90;;;20.40;99.90;;;;;;5013255;28;20075;-72
2022/07/25 02:37:44;;;;;;;1999.90;999.90;;;20.30;99.90;;;;;;5017847;28;20021;-71
2022/07/25 02:40:10;;;;;;;1999.90;999.90;;;20.30;99.90;;;;;;5033272;28;20029;-72
2022/07/25 02:42:36;;;;;;;1999.90;999.90;;;20.20;99.90;;;;;;5033331;28;20040;-72
2022/07/25 02:45:02;;;;;;;1999.90;999.90;;;20.10;99.90;;;;;;5032982;28;20025;-72
2022/07/25 02:47:27;;;;;;;1999.90;999.90;;;20.10;99.90;;;;;;5033051;28;20025;-70
2022/07/25 02:49:53;;;;;;;1999.90;999.90;;;20.00;99.90;;;;;;5032853;28;20484;-71
2022/07/25 02:52:19;;;;;;;1999.90;999.90;;;20.00;99.90;;;;;;5032753;28;20026;-71
2022/07/25 02:54:44;;;;;;;1999.90;999.90;;;20.00;99.90;;;;;;5031701;28;20026;-73
2022/07/25 02:57:10;;;;;;;1999.90;999.90;;;20.00;99.90;;;;;;5032898;28;20116;-70
2022/07/25 02:59:35;;;;;;;1999.90;999.90;;;20.00;99.90;;;;;;5032927;28;20033;-72
2022/07/25 03:02:01;;;;;;;1999.90;999.90;;;19.90;99.90;;;;;;5031995;28;20033;-70
2022/07/25 03:04:27;;;;;;;1999.90;999.90;;;19.90;99.90;;;;;;5033135;28;20376;-71
2022/07/25 03:06:52;;;;;;;1999.90;999.90;;;19.90;99.90;;;;;;5032955;28;20035;-70
2022/07/25 03:09:18;;;;;;;1999.90;999.90;;;19.90;99.90;;;;;;5032594;28;20052;-72
2022/07/25 03:11:44;;;;;;;1999.90;999.90;;;19.90;99.90;;;;;;5032504;28;20033;-70
2022/07/25 03:14:09;;;;;;;1999.90;999.90;;;19.80;99.90;;;;;;5032695;28;20025;-72
2022/07/25 03:16:35;;;;;;;1999.90;999.90;;;19.80;99.90;;;;;;5032673;28;20022;-72
2022/07/25 03:19:01;;;;;;;1999.90;999.90;;;19.80;99.90;;;;;;5032252;28;20029;-72
2022/07/25 03:21:27;;;;;;;1999.90;999.90;;;19.80;99.90;;;;;;5032758;28;20374;-72
2022/07/25 03:23:52;;;;;;;1999.90;999.90;;;19.70;99.90;;;;;;5032647;28;20440;-72
2022/07/25 03:26:18;;;;;;;1999.90;999.90;;;19.70;99.90;;;;;;5032534;28;20034;-72
2022/07/25 03:28:44;;;;;;;1999.90;999.90;;;19.70;99.90;;;;;;5032058;28;20092;-72
2022/07/25 03:31:10;;;;;;;1999.90;999.90;;;19.60;99.90;;;;;;5032798;28;20053;-70
2022/07/25 03:33:35;;;;;;;1999.90;999.90;;;19.60;99.90;;;;;;5032367;28;20559;-72
2022/07/25 03:36:01;;;;;;;1999.90;999.90;;;19.60;99.90;;;;;;5032758;28;20389;-73
2022/07/25 03:38:26;;;;;;;1999.90;999.90;;;19.60;99.90;;;;;;5032558;28;20115;-72
2022/07/25 03:40:52;;;;;;;1999.90;999.90;;;19.60;99.90;;;;;;5036069;28;20024;-72
2022/07/25 03:43:18;;;;;;;1999.90;999.90;;;19.60;99.90;;;;;;5036475;28;20036;-72
2022/07/25 03:45:43;;;;;;;1999.90;999.90;;;19.60;99.90;;;;;;5036239;28;20025;-72
2022/07/25 03:48:09;;;;;;;1999.90;999.90;;;19.60;99.90;;;;;;5036081;28;20029;-70
2022/07/25 03:50:35;;;;;;;1999.90;999.90;;;19.60;99.90;;;;;;5036155;28;20029;-72
2022/07/25 03:53:00;;;;;;;1999.90;999.90;;;19.60;99.90;;;;;;5036310;28;20075;-72
2022/07/25 03:55:26;;;;;;;1999.90;999.90;;;19.50;99.90;;;;;;5036036;28;20045;-72
2022/07/25 03:57:52;;;;;;;1999.90;999.90;;;19.50;99.90;;;;;;5036244;28;20108;-70
2022/07/25 04:00:17;;;;;;;1999.90;999.90;;;19.50;99.90;;;;;;5035822;28;20029;-72
2022/07/25 04:02:43;;;;;;;1999.90;999.90;;;19.50;99.90;;;;;;5035222;28;20101;-71
2022/07/25 04:05:09;;;;;;;1999.90;999.90;;;19.50;99.90;;;;;;5035924;28;20449;-72
2022/07/25 04:07:36;;;;;;;1999.90;999.90;;;19.50;99.90;;;;;;5036036;28;20052;-70
2022/07/25 04:10:03;;;;;;;1999.90;999.90;;;19.50;99.90;;;;;;5035206;28;20021;-73
2022/07/25 04:12:29;;;;;;;1999.90;999.90;;;19.50;99.90;;;;;;5035844;28;20071;-71
2022/07/25 04:14:54;;;;;;;1999.90;999.90;;;19.40;99.90;;;;;;5035145;28;20030;-72
2022/07/25 04:17:20;;;;;;;1999.90;999.90;;;19.40;99.90;;;;;;5035468;28;20026;-73
2022/07/25 04:19:46;;;;;;;1999.90;999.90;;;19.40;99.90;;;;;;5035640;28;20026;-72
2022/07/25 04:22:11;;;;;;;1999.90;999.90;;;19.40;99.90;;;;;;5035574;28;20033;-70
2022/07/25 04:24:37;;;;;;;1999.90;999.90;;;19.40;99.90;;;;;;5033084;28;20416;-72
2022/07/25 04:27:03;;;;;;;1999.90;999.90;;;19.40;99.90;;;;;;5034134;28;20037;-72
2022/07/25 04:29:28;;;;;;;1999.90;999.90;;;19.40;99.90;;;;;;5035460;28;20037;-71
2022/07/25 04:31:54;;;;;;;1999.90;999.90;;;19.40;99.90;;;;;;5034062;28;20025;-72
2022/07/25 04:34:20;;;;;;;1999.90;999.90;;;19.40;99.90;;;;;;5035054;28;20470;-70
2022/07/25 04:36:45;;;;;;;1999.90;999.90;;;19.40;99.90;;;;;;5034825;28;20071;-70
2022/07/25 04:39:11;;;;;;;1999.90;999.90;;;19.30;99.90;;;;;;5034975;28;20036;-72
2022/07/25 04:41:37;;;;;;;1999.90;999.90;;;19.40;99.90;;;;;;5034821;28;20092;-72
2022/07/25 04:44:03;;;;;;;1999.90;999.90;;;19.40;99.90;;;;;;5035049;28;20487;-70
2022/07/25 04:46:29;;;;;;;1999.90;999.90;;;19.50;99.90;;;;;;5035149;28;20022;-72
2022/07/25 04:48:54;;;;;;;1999.90;999.90;;;19.50;99.90;;;;;;5035082;28;20032;-70
2022/07/25 04:51:20;;;;;;;1999.90;999.90;;;19.60;99.90;;;;;;5034288;28;20061;-72
2022/07/25 04:53:46;;;;;;;1999.90;999.90;;;19.60;99.90;;;;;;5035134;28;20391;-72
2022/07/25 04:56:11;;;;;;;1999.90;999.90;;;19.70;99.90;;;;;;5034517;28;20017;-72
2022/07/25 04:58:37;;;;;;;1999.90;999.90;;;19.70;99.90;;;;;;5034847;28;20393;-73
2022/07/25 05:01:03;;;;;;;1999.90;999.90;;;19.80;99.90;;;;;;5034601;28;20028;-71
2022/07/25 05:03:28;;;;;;;1999.90;999.90;;;19.80;99.90;;;;;;5033924;28;20112;-71
2022/07/25 05:05:54;;;;;;;1999.90;999.90;;;19.80;99.90;;;;;;5034671;28;20033;-70
2022/07/25 05:08:20;;;;;;;1999.90;999.90;;;19.80;99.90;;;;;;5034881;28;20026;-72
2022/07/25 05:10:45;;;;;;;1999.90;999.90;;;19.90;99.90;;;;;;5025797;28;20509;-72
2022/07/25 05:13:11;;;;;;;1999.90;999.90;;;20.00;99.90;;;;;;5014653;28;20022;-72
2022/07/25 05:15:36;;;;;;;1999.90;999.90;;;20.00;99.90;;;;;;5014767;28;20037;-71
2022/07/25 05:18:03;;;;;;;1999.90;999.90;;;20.00;99.90;;;;;;5014537;28;20026;-72
2022/07/25 05:20:29;;;;;;;1999.90;999.90;;;20.10;99.90;;;;;;5014552;28;20153;-72
2022/07/25 05:22:55;;;;;;;1999.90;999.90;;;20.10;99.90;;;;;;5014664;28;20113;-72
2022/07/25 05:25:20;;;;;;;1999.90;999.90;;;20.10;99.90;;;;;;5022705;28;20029;-72
2022/07/25 05:27:46;;;;;;;1999.90;999.90;;;20.20;99.90;;;;;;5033892;28;20056;-70
2022/07/25 05:30:13;;;;;;;1999.90;999.90;;;20.20;99.90;;;;;;5034343;28;20113;-72
2022/07/25 05:32:40;;;;;;;1999.90;999.90;;;20.30;99.90;;;;;;5029409;28;20036;-70
2022/07/25 05:35:07;;;;;;;1999.90;999.90;;;20.30;99.90;;;;;;5032170;28;20032;-72
2022/07/25 05:37:33;;;;;;;1999.90;999.90;;;20.20;99.90;;;;;;5016944;28;20039;-73
2022/07/25 05:39:59;;;;;;;1999.90;999.90;;;20.20;99.90;;;;;;5033663;28;20114;-71
2022/07/25 05:42:25;;;;;;;1999.90;999.90;;;20.20;99.90;;;;;;5034012;28;20496;-70
2022/07/25 05:44:50;;;;;;;1999.90;999.90;;;20.30;99.90;;;;;;5033979;28;20578;-72
2022/07/25 05:47:16;;;;;;;1999.90;999.90;;;20.30;99.90;;;;;;5034010;28;20037;-73
2022/07/25 05:49:42;;;;;;;1999.90;999.90;;;20.30;99.90;;;;;;5033468;28;20024;-72
2022/07/25 05:52:08;;;;;;;1999.90;999.90;;;20.30;99.90;;;;;;5033528;28;20129;-71
2022/07/25 05:54:34;;;;;;;1999.90;999.90;;;20.40;99.90;;;;;;5033168;28;20029;-70
2022/07/25 05:57:00;;;;;;;1999.90;999.90;;;20.40;99.90;;;;;;5033455;28;20048;-70
2022/07/25 05:59:26;;;;;;;1999.90;999.90;;;20.30;99.90;;;;;;5033473;28;20523;-72
2022/07/25 06:01:52;;;;;;;1999.90;999.90;;;20.20;99.90;;;;;;5033322;28;20447;-72
2022/07/25 06:04:17;;;;;;;1999.90;999.90;;;20.20;99.90;;;;;;5032512;28;20101;-70
2022/07/25 06:06:49;;;;;;;1999.90;999.90;;;20.10;99.90;;;;;;5033203;28;20431;-70
2022/07/25 06:09:21;;;;;;;1999.90;999.90;;;20.10;99.90;;;;;;5032838;28;20527;-70
2022/07/25 06:11:48;;;;;;;1999.90;999.90;;;20.10;99.90;;;;;;5028115;28;20026;-72
2022/07/25 06:14:14;;;;;;;1999.90;999.90;;;20.20;99.90;;;;;;5013783;28;20084;-72
2022/07/25 06:16:40;;;;;;;1999.90;999.90;;;20.30;99.90;;;;;;5013352;28;20034;-72
2022/07/25 06:19:06;;;;;;;1999.90;999.90;;;20.50;99.90;;;;;;5012929;28;20050;-70
2022/07/25 06:21:32;;;;;;;1999.90;999.90;;;20.60;99.90;;;;;;5016770;28;20059;-70
2022/07/25 06:23:57;;;;;;;1999.90;999.90;;;20.60;99.90;;;;;;5023520;28;20022;-72
2022/07/25 06:26:23;;;;;;;1999.90;999.90;;;20.70;99.90;;;;;;5024682;28;20029;-72
2022/07/25 06:28:50;;;;;;;1999.90;999.90;;;20.80;99.90;;;;;;5032715;28;20539;-72
2022/07/25 06:31:17;;;;;;;1999.90;999.90;;;20.90;99.90;;;;;;5016076;28;20096;-70
2022/07/25 06:33:42;;;;;;;1999.90;999.90;;;20.90;99.90;;;;;;5027890;28;20025;-72
2022/07/25 06:36:08;;;;;;;1999.90;999.90;;;21.20;99.90;;;;;;5031524;28;20026;-72
2022/07/25 06:38:34;;;;;;;1999.90;999.90;;;21.40;99.90;;;;;;5032752;28;20022;-70
2022/07/25 06:40:59;;;;;;;1999.90;999.90;;;21.40;99.90;;;;;;5031322;28;20079;-70
2022/07/25 06:43:25;;;;;;;1999.90;999.90;;;21.50;99.90;;;;;;5030900;28;20030;-72
2022/07/25 06:45:51;;;;;;;1999.90;999.90;;;21.70;99.90;;;;;;5032100;28;20083;-69
2022/07/25 06:48:17;;;;;;;1999.90;999.90;;;21.70;99.90;;;;;;5032223;28;20029;-69
2022/07/25 06:50:43;;;;;;;1999.90;999.90;;;21.80;99.90;;;;;;5032646;28;20034;-70
2022/07/25 06:53:09;;;;;;;1999.90;999.90;;;21.70;99.90;;;;;;5032198;28;20025;-73
2022/07/25 06:55:35;;;;;;;1999.90;999.90;;;21.70;99.90;;;;;;5031937;28;20101;-72
2022/07/25 06:58:00;;;;;;;1999.90;999.90;;;22.10;99.90;;;;;;5032483;28;20029;-70
2022/07/25 07:00:26;;;;;;;1999.90;999.90;;;22.10;99.90;;;;;;5032304;28;20425;-70
2022/07/25 07:02:55;;;;;;;1999.90;999.90;;;22.20;99.90;;;;;;5031623;28;20037;-72
2022/07/25 07:05:22;;;;;;;1999.90;999.90;;;22.30;99.90;;;;;;5032348;28;20053;-70
2022/07/25 07:07:48;;;;;;;1999.90;999.90;;;22.30;99.90;;;;;;5031029;28;20030;-72
2022/07/25 07:10:15;;;;;;;1999.90;999.90;;;22.30;99.90;;;;;;5025906;28;20496;-70
2022/07/25 07:12:41;;;;;;;1999.90;999.90;;;22.30;99.90;;;;;;5016460;28;20033;-70
2022/07/25 07:15:07;;;;;;;1999.90;999.90;;;22.30;99.90;;;;;;5014411;28;20030;-71
2022/07/25 07:17:33;;;;;;;1999.90;999.90;;;22.10;99.90;;;;;;5024277;28;20017;-70
2022/07/25 07:19:58;;;;;;;1999.90;999.90;;;21.90;99.90;;;;;;5030382;28;20072;-72
2022/07/25 07:22:24;;;;;;;1999.90;999.90;;;21.70;99.90;;;;;;5023311;28;20026;-72
2022/07/25 07:24:50;;;;;;;1999.90;999.90;;;21.50;99.90;;;;;;5015964;28;20452;-71
2022/07/25 07:27:15;;;;;;;1999.90;999.90;;;21.60;99.90;;;;;;5031788;28;20049;-70
2022/07/25 07:29:41;;;;;;;1999.90;999.90;;;21.80;99.90;;;;;;5029731;28;20076;-70
2022/07/25 07:32:07;;;;;;;1999.90;999.90;;;22.10;99.90;;;;;;5028525;28;20101;-73
2022/07/25 07:34:32;;;;;;;1999.90;999.90;;;21.90;99.90;;;;;;5035238;28;20025;-72
2022/07/25 07:36:58;;;;;;;1999.90;999.90;;;21.80;99.90;;;;;;5034865;28;20029;-70
2022/07/25 07:39:24;;;;;;;1999.90;999.90;;;21.60;99.90;;;;;;5035374;28;20028;-69
2022/07/25 07:41:49;;;;;;;1999.90;999.90;;;21.50;99.90;;;;;;5033313;28;20013;-70
2022/07/25 07:44:15;;;;;;;1999.90;999.90;;;21.50;99.90;;;;;;5030356;28;20485;-73
2022/07/25 07:46:41;;;;;;;1999.90;999.90;;;21.40;99.90;;;;;;5019055;28;20397;-69
2022/07/25 07:49:06;;;;;;;1999.90;999.90;;;21.30;99.90;;;;;;5015355;28;20128;-71
2022/07/25 07:51:32;;;;;;;1999.90;999.90;;;21.40;99.90;;;;;;5017550;28;20422;-71
2022/07/25 07:57:02;;;;;;;1999.90;999.90;;;20.90;99.90;;;;;;5012898;28;20018;-72
2022/07/25 07:59:27;;;;;;;1999.90;999.90;;;20.60;99.90;;;;;;5029078;28;20039;-72
2022/07/25 08:01:53;;;;;;;1999.90;999.90;;;20.60;99.90;;;;;;5019839;28;20480;-72
2022/07/25 08:04:18;;;;;;;1999.90;999.90;;;20.40;99.90;;;;;;5034200;28;20021;-70
2022/07/25 08:06:44;;;;;;;1999.90;999.90;;;20.10;99.90;;;;;;5034630;28;20026;-73
2022/07/25 08:09:10;;;;;;;1999.90;999.90;;;20.20;99.90;;;;;;5034599;28;20030;-73
2022/07/25 08:11:35;;;;;;;1999.90;999.90;;;20.10;99.90;;;;;;5033980;28;20025;-69
2022/07/25 08:14:03;;;;;;;1999.90;999.90;;;20.00;99.90;;;;;;5034808;28;20030;-73
2022/07/25 08:16:28;;;;;;;1999.90;999.90;;;20.00;99.90;;;;;;5034087;28;20441;-71
2022/07/25 08:18:54;;;;;;;1999.90;999.90;;;20.00;99.90;;;;;;5027087;28;20109;-71
2022/07/25 08:21:20;;;;;;;1999.90;999.90;;;20.10;99.90;;;;;;5021119;28;20488;-72
2022/07/25 08:23:46;;;;;;;1999.90;999.90;;;20.00;99.90;;;;;;5033075;28;20083;-72
2022/07/25 08:26:13;;;;;;;1999.90;999.90;;;20.00;99.90;;;;;;5033220;28;20041;-72
2022/07/25 08:28:39;;;;;;;1999.90;999.90;;;20.00;99.90;;;;;;5034226;28;20053;-70
2022/07/25 08:31:05;;;;;;;1999.90;999.90;;;20.00;99.90;;;;;;5023197;28;20040;-70
2022/07/25 08:33:31;;;;;;;1999.90;999.90;;;20.10;99.90;;;;;;5033246;28;20034;-72
2022/07/25 08:35:59;;;;;;;1999.90;999.90;;;20.30;99.90;;;;;;5032894;28;20096;-70
2022/07/25 08:38:27;;;;;;;1999.90;999.90;;;20.80;99.90;;;;;;5032206;28;20037;-72
2022/07/25 08:40:54;;;;;;;1999.90;999.90;;;21.90;99.90;;;;;;5018903;28;20136;-72
2022/07/25 08:43:20;;;;;;;1999.90;999.90;;;22.50;99.90;;;;;;5025460;28;20034;-71
2022/07/25 08:45:48;;;;;;;1999.90;999.90;;;24.30;99.90;;;;;;5025711;28;20037;-74
2022/07/25 08:48:17;;;;;;;1999.90;999.90;;;23.90;99.90;;;;;;5032723;28;20048;-71
2022/07/25 08:50:43;;;;;;;1999.90;999.90;;;22.80;99.90;;;;;;5026386;28;20068;-71
2022/07/25 08:53:09;;;;;;;1999.90;999.90;;;22.30;99.90;;;;;;5024273;28;20120;-73
2022/07/25 08:55:35;;;;;;;1999.90;999.90;;;22.10;99.90;;;;;;5018789;28;20105;-71
2022/07/25 08:58:01;;;;;;;1999.90;999.90;;;21.50;99.90;;;;;;5025054;28;20034;-71
2022/07/25 09:00:27;;;;;;;1999.90;999.90;;;21.30;99.90;;;;;;5014320;28;20033;-73
2022/07/25 09:02:56;;;;;;;1999.90;999.90;;;21.40;99.90;;;;;;5023163;28;20440;-73
2022/07/25 09:05:23;;;;;;;1999.90;999.90;;;21.50;99.90;;;;;;5033024;28;20021;-73
2022/07/25 09:07:50;;;;;;;1999.90;999.90;;;21.80;99.90;;;;;;5023332;28;20496;-72
2022/07/25 09:10:26;;;;;;;1999.90;999.90;;;22.10;99.90;;;;;;5025662;28;20029;-71
2022/07/25 09:13:00;;;;;;;1999.90;999.90;;;21.90;99.90;;;;;;5025878;28;20025;-71
2022/07/25 09:15:34;;;;;;;1999.90;999.90;;;21.60;99.90;;;;;;5017978;28;20025;-74
2022/07/25 09:18:08;;;;;;;1999.90;999.90;;;21.20;99.90;;;;;;5022141;28;20057;-71
2022/07/25 09:20:45;;;;;;;1999.90;999.90;;;20.80;99.90;;;;;;5041944;28;20538;-72
2022/07/25 09:23:13;;;;;;;1999.90;999.90;;;20.60;99.90;;;;;;5013203;28;20421;-71
2022/07/25 09:25:39;;;;;;;1999.90;999.90;;;20.30;99.90;;;;;;5012635;28;20033;-71
2022/07/25 09:28:23;;;;;;;1999.90;999.90;;;20.10;99.90;;;;;;5013116;28;20084;-73
2022/07/25 09:30:59;;;;;;;1999.90;999.90;;;19.70;99.90;;;;;;5011957;28;20037;-74
2022/07/25 09:33:27;;;;;;;1999.90;999.90;;;19.60;99.90;;;;;;5011931;28;20037;-70
2022/07/25 09:35:54;;;;;;;1999.90;999.90;;;19.70;99.90;;;;;;5010642;28;20428;-70
2022/07/25 09:38:21;;;;;;;1999.90;999.90;;;19.80;99.90;;;;;;5012053;28;20465;-72
2022/07/25 09:41:00;;;;;;;1999.90;999.90;;;19.90;99.90;;;;;;5011859;28;20033;-73
2022/07/25 09:43:36;;;;;;;1999.90;999.90;;;20.00;99.90;;;;;;5010411;28;20853;-72
2022/07/25 09:46:03;;;;;;;1999.90;999.90;;;20.00;99.90;;;;;;5012066;28;20512;-70
2022/07/25 09:48:29;;;;;;;1999.90;999.90;;;19.90;99.90;;;;;;5012253;28;20068;-71
2022/07/25 09:50:55;;;;;;;1999.90;999.90;;;20.00;99.90;;;;;;5018036;28;20038;-71
2022/07/25 09:53:21;;;;;;;1999.90;999.90;;;20.10;99.90;;;;;;5022755;28;20104;-74
2022/07/25 09:55:46;;;;;;;1999.90;999.90;;;20.30;99.90;;;;;;5024041;28;20030;-74
2022/07/25 09:58:12;;;;;;;1999.90;999.90;;;20.40;99.90;;;;;;5032468;28;20030;-71
2022/07/25 10:00:39;;;;;;;1999.90;999.90;;;20.20;99.90;;;;;;5023828;28;20042;-70
2022/07/25 10:03:16;;;;;;;1999.90;999.90;;;20.30;99.90;;;;;;5027579;28;20029;-70
2022/07/25 10:06:12;;;;;;;1999.90;999.90;;;20.20;99.90;;;;;;5019145;28;20489;-74
2022/07/25 10:08:40;;;;;;;1999.90;999.90;;;20.30;99.90;;;;;;5014232;28;20448;-70
2022/07/25 10:11:24;;;;;;;1999.90;999.90;;;20.50;99.90;;;;;;5029579;28;20460;-73
2022/07/25 10:13:51;;;;;;;1999.90;999.90;;;20.50;99.90;;;;;;5031440;28;20021;-70
2022/07/25 10:16:19;;;;;;;1999.90;999.90;;;20.30;99.90;;;;;;5015186;28;20068;-70
2022/07/25 10:18:57;;;;;;;1999.90;999.90;;;20.50;99.90;;;;;;5023461;28;20029;-74
2022/07/25 10:21:24;;;;;;;1999.90;999.90;;;20.80;99.90;;;;;;5031836;28;20426;-74
2022/07/25 10:24:02;;;;;;;1999.90;999.90;;;20.80;99.90;;;;;;5021126;28;20057;-74
2022/07/25 10:26:28;;;;;;;1999.90;999.90;;;21.00;99.90;;;;;;5019282;28;20038;-70
2022/07/25 10:28:55;;;;;;;1999.90;999.90;;;20.90;99.90;;;;;;5025959;28;20056;-71
2022/07/25 10:31:40;;;;;;;1999.90;999.90;;;21.00;99.90;;;;;;5024792;28;20056;-73
2022/07/25 10:34:08;;;;;;;1999.90;999.90;;;20.90;99.90;;;;;;5029597;28;20040;-73
2022/07/25 10:36:54;;;;;;;1999.90;999.90;;;20.90;99.90;;;;;;5018475;28;20029;-73
2022/07/25 10:39:22;;;;;;;1999.90;999.90;;;21.70;99.90;;;;;;5024783;28;20353;-71
2022/07/25 10:42:01;;;;;;;1999.90;999.90;;;22.70;99.90;;;;;;5017472;28;20116;-71
2022/07/25 10:44:38;;;;;;;1999.90;999.90;;;22.50;99.90;;;;;;5025061;28;20582;-73
2022/07/25 10:47:09;;;;;;;1999.90;999.90;;;22.70;99.90;;;;;;5038181;28;20416;-73
2022/07/25 10:49:37;;;;;;;1999.90;999.90;;;23.30;99.90;;;;;;5017689;28;20171;-72
2022/07/25 10:52:04;;;;;;;1999.90;999.90;;;23.50;99.90;;;;;;5023909;28;20523;-73
2022/07/25 10:54:35;;;;;;;1999.90;999.90;;;23.80;99.90;;;;;;5015711;28;20485;-72
2022/07/25 10:57:03;;;;;;;1999.90;999.90;;;23.50;99.90;;;;;;5016084;28;20096;-72
2022/07/25 10:59:37;;;;;;;1999.90;999.90;;;22.50;99.90;;;;;;5024826;28;20100;-73
2022/07/25 11:02:08;;;;;;;1999.90;999.90;;;22.70;99.90;;;;;;5029846;28;20017;-73
2022/07/25 11:04:35;;;;;;;1999.90;999.90;;;22.80;99.90;;;;;;5014011;28;20778;-71
2022/07/25 11:07:12;;;;;;;1999.90;999.90;;;22.80;99.90;;;;;;5019479;28;20026;-71
2022/07/25 11:09:39;;;;;;;1999.90;999.90;;;22.60;99.90;;;;;;5013322;28;20072;-73
2022/07/25 11:12:04;;;;;;;1999.90;999.90;;;22.80;99.90;;;;;;5029534;28;20028;-72
2022/07/25 11:14:33;;;;;;;1999.90;999.90;;;22.80;99.90;;;;;;5029256;28;20365;-71
2022/07/25 11:17:29;;;;;;;1999.90;999.90;;;22.20;99.90;;;;;;5019596;28;20025;-71
2022/07/25 11:20:02;;;;;;;1999.90;999.90;;;22.50;99.90;;;;;;5023830;28;20037;-72
2022/07/25 11:22:30;;;;;;;1999.90;999.90;;;23.30;99.90;;;;;;5011331;28;20160;-73
2022/07/25 11:24:56;;;;;;;1999.90;999.90;;;23.10;99.90;;;;;;5025657;28;20055;-73
2022/07/25 11:27:30;;;;;;;1999.90;999.90;;;22.70;99.90;;;;;;5027281;28;20049;-71
2022/07/25 11:30:09;;;;;;;1999.90;999.90;;;22.10;99.90;;;;;;5016533;28;20421;-73
2022/07/25 11:32:46;;;;;;;1999.90;999.90;;;21.80;99.90;;;;;;5014660;28;20124;-71
2022/07/25 11:35:13;;;;;;;1999.90;999.90;;;22.00;99.90;;;;;;5013049;28;20116;-74
2022/07/25 11:37:41;;;;;;;1999.90;999.90;;;22.30;99.90;;;;;;5019054;28;20022;-71
2022/07/25 11:40:08;;;;;;;1999.90;999.90;;;22.80;99.90;;;;;;5027012;28;20037;-73
2022/07/25 11:42:46;;;;;;;1999.90;999.90;;;23.00;99.90;;;;;;5025379;28;20120;-73
2022/07/25 11:45:38;;;;;;;1999.90;999.90;;;23.10;99.90;;;;;;5026715;28;20104;-71
2022/07/25 11:48:12;;;;;;;1999.90;999.90;;;23.50;99.90;;;;;;5016364;28;20108;-73
2022/07/25 11:50:40;;;;;;;1999.90;999.90;;;23.10;99.90;;;;;;5015812;28;20034;-73
2022/07/25 11:53:09;;;;;;;1999.90;999.90;;;22.80;99.90;;;;;;5021079;28;20026;-73
2022/07/25 11:55:39;;;;;;;1999.90;999.90;;;22.80;99.90;;;;;;5029832;28;20017;-73
2022/07/25 11:58:05;;;;;;;1999.90;999.90;;;23.20;99.90;;;;;;5027271;28;20026;-72
2022/07/25 12:00:49;;;;;;;1999.90;999.90;;;23.70;99.90;;;;;;5026433;28;20029;-73
2022/07/25 12:03:19;;;;;;;1999.90;999.90;;;23.50;99.90;;;;;;5020584;28;20466;-72